Time;durP1;ratioP1;P1;durP2;ratioP2;P2;SDS_P1;SDS_P2;PMS_P1;PMS_P2;Temp;Humidity;BMP_temperature;BMP_pressure;BME280_temperature;BME280_humidity;BME280_pressure;Samples;Min_cycle;Max_cycle;Signal;HPM_P1;HPM_P2
2022/05/09 00:01:46;;;;;;;;;;;9.10;97.80;;;;;;5091252;28;19924;-81
2022/05/09 00:04:12;;;;;;;;;;;9.10;99.90;;;;;;5090295;28;20353;-82
2022/05/09 00:06:37;;;;;;;;;;;9.10;99.90;;;;;;5073681;28;20376;-82
2022/05/09 00:09:04;;;;;;;;;;;9.10;99.90;;;;;;5073100;28;20012;-84
2022/05/09 00:11:29;;;;;;;;;;;9.10;99.90;;;;;;5090025;28;19920;-82
2022/05/09 00:13:55;;;;;;;;;;;9.30;99.90;;;;;;5090829;28;19943;-82
2022/05/09 00:16:21;;;;;;;;;;;9.10;99.90;;;;;;5072962;28;19930;-82
2022/05/09 00:18:47;;;;;;;;;;;9.10;99.90;;;;;;5090504;28;19928;-81
2022/05/09 00:21:13;;;;;;;;;;;9.10;99.90;;;;;;5123987;27;19924;-82
2022/05/09 00:23:38;;;;;;;;;;;9.10;99.90;;;;;;5090450;28;19931;-82
2022/05/09 00:26:04;;;;;;;;;;;9.00;99.90;;;;;;5106401;28;19942;-85
2022/05/09 00:28:29;;;;;;;;;;;9.00;99.90;;;;;;5090460;28;19920;-82
2022/05/09 00:30:55;;;;;;;;;;;9.00;99.90;;;;;;5090235;28;20387;-81
2022/05/09 00:33:21;;;;;;;;;;;8.90;99.90;;;;;;5072645;28;19920;-82
2022/05/09 00:35:47;;;;;;;;;;;8.90;99.90;;;;;;5075682;28;20014;-81
2022/05/09 00:38:12;;;;;;;;;;;8.90;99.90;;;;;;5088932;28;19920;-82
2022/05/09 00:40:38;;;;;;;;;;;8.90;99.90;;;;;;5102830;28;19920;-81
2022/05/09 00:43:24;;;;;;;;;;;8.90;99.90;;;;;;5069722;28;19931;-84
2022/05/09 00:45:49;;;;;;;;;;;8.90;99.90;;;;;;5103338;28;19920;-81
2022/05/09 00:48:15;;;;;;;;;;;8.80;99.90;;;;;;5085508;28;19920;-82
2022/05/09 00:50:41;;;;;;;;;;;8.80;99.90;;;;;;5069902;28;20360;-82
2022/05/09 00:53:07;;;;;;;;;;;8.80;99.90;;;;;;5102957;28;19924;-84
2022/05/09 00:55:47;;;;;;;;;;;8.80;99.90;;;;;;5086256;28;19920;-82
2022/05/09 00:58:15;;;;;;;;;;;8.70;99.90;;;;;;5069521;28;19960;-81
2022/05/09 01:00:42;;;;;;;;;;;8.70;99.90;;;;;;5069601;28;20695;-81
2022/05/09 01:03:12;;;;;;;;;;;8.60;99.90;;;;;;5060407;28;19949;-83
2022/05/09 01:05:38;;;;;;;;;;;8.60;99.90;;;;;;5123857;27;19945;-82
2022/05/09 01:08:03;;;;;;;;;;;8.60;99.90;;;;;;5123771;28;19924;-82
2022/05/09 01:10:31;;;;;;;;;;;8.50;99.90;;;;;;5122378;28;19935;-82
2022/05/09 01:12:59;;;;;;;;;;;8.50;99.90;;;;;;5089543;28;19928;-82
2022/05/09 01:15:26;;;;;;;;;;;8.50;99.90;;;;;;5123129;28;19927;-82
2022/05/09 01:17:51;;;;;;;;;;;8.70;99.90;;;;;;5089895;28;19920;-82
2022/05/09 01:20:17;;;;;;;;;;;8.40;99.90;;;;;;5089220;28;19923;-82
2022/05/09 01:22:43;;;;;;;;;;;8.60;99.90;;;;;;5089472;28;19920;-82
2022/05/09 01:25:13;;;;;;;;;;;8.40;99.90;;;;;;5079281;28;19920;-85
2022/05/09 01:27:40;;;;;;;;;;;8.40;99.90;;;;;;5069569;28;19924;-81
2022/05/09 01:30:09;;;;;;;;;;;8.40;99.90;;;;;;5072101;28;20325;-83
2022/05/09 01:32:34;;;;;;;;;;;8.40;99.90;;;;;;5089665;28;20416;-81
2022/05/09 01:35:14;;;;;;;;;;;8.40;99.90;;;;;;5123359;28;19924;-83
2022/05/09 01:37:42;;;;;;;;;;;8.40;99.90;;;;;;5088919;28;19959;-82
2022/05/09 01:40:08;;;;;;;;;;;8.40;99.90;;;;;;5088918;28;19927;-85
2022/05/09 01:42:35;;;;;;;;;;;8.30;99.90;;;;;;5088435;28;19947;-81
2022/05/09 01:45:01;;;;;;;;;;;8.30;99.90;;;;;;5105611;28;20517;-82
2022/05/09 01:50:11;;;;;;;;;;;8.20;99.90;;;;;;5089113;28;19927;-82
2022/05/09 01:52:38;;;;;;;;;;;8.20;99.90;;;;;;5106604;28;19920;-82
2022/05/09 01:55:05;;;;;;;;;;;8.20;99.90;;;;;;5089916;28;19924;-82
2022/05/09 01:57:31;;;;;;;;;;;8.10;99.90;;;;;;5089302;28;19958;-82
2022/05/09 01:59:58;;;;;;;;;;;8.10;99.90;;;;;;5092810;28;19928;-82
2022/05/09 02:02:23;;;;;;;;;;;8.10;99.90;;;;;;5093571;28;19920;-81
2022/05/09 02:04:49;;;;;;;;;;;8.10;99.90;;;;;;5093438;28;19920;-81
2022/05/09 02:07:16;;;;;;;;;;;8.10;99.90;;;;;;5092694;28;19927;-81
2022/05/09 02:09:43;;;;;;;;;;;8.00;99.90;;;;;;5076874;28;20369;-81
2022/05/09 02:12:09;;;;;;;;;;;8.00;99.90;;;;;;5127305;27;20019;-81
2022/05/09 02:14:35;;;;;;;;;;;8.00;99.90;;;;;;5126923;27;19920;-82
2022/05/09 02:17:01;;;;;;;;;;;8.00;99.90;;;;;;5113106;27;19921;-81
2022/05/09 02:19:26;;;;;;;;;;;8.00;99.90;;;;;;5089967;28;19924;-81
2022/05/09 02:21:52;;;;;;;;;;;7.90;99.90;;;;;;5081750;28;19927;-81
2022/05/09 02:24:18;;;;;;;;;;;7.80;99.90;;;;;;5092775;28;19924;-82
2022/05/09 02:26:44;;;;;;;;;;;7.60;99.90;;;;;;5127035;27;19926;-82
2022/05/09 02:29:10;;;;;;;;;;;7.50;99.90;;;;;;5092899;28;20014;-81
2022/05/09 02:31:35;;;;;;;;;;;7.50;99.90;;;;;;5075669;28;20014;-82
2022/05/09 02:34:01;;;;;;;;;;;7.40;99.90;;;;;;5126651;27;19924;-82
2022/05/09 02:36:27;;;;;;;;;;;7.50;99.90;;;;;;5085349;28;19970;-82
2022/05/09 02:38:53;;;;;;;;;;;7.20;99.90;;;;;;5076511;28;19971;-81
2022/05/09 02:41:19;;;;;;;;;;;7.20;99.90;;;;;;5092173;28;19959;-81
2022/05/09 02:43:44;;;;;;;;;;;7.20;99.90;;;;;;5092764;28;20342;-81
2022/05/09 02:46:10;;;;;;;;;;;7.10;99.90;;;;;;5092983;28;19923;-81
2022/05/09 02:48:37;;;;;;;;;;;7.00;99.90;;;;;;5092563;28;20335;-81
2022/05/09 02:51:04;;;;;;;;;;;7.20;99.90;;;;;;5093094;28;20285;-81
2022/05/09 02:53:30;;;;;;;;;;;6.90;99.90;;;;;;5092117;28;19920;-82
2022/05/09 02:55:56;;;;;;;;;;;6.90;99.90;;;;;;5091787;28;20369;-81
2022/05/09 02:58:22;;;;;;;;;;;7.00;99.90;;;;;;5092095;28;19928;-82
2022/05/09 03:00:47;;;;;;;;;;;6.70;99.90;;;;;;5092860;28;19989;-81
2022/05/09 03:05:58;;;;;;;;;;;6.70;99.90;;;;;;5093029;28;19973;-82
2022/05/09 03:08:24;;;;;;;;;;;6.60;99.90;;;;;;5126248;27;20020;-82
2022/05/09 03:10:50;;;;;;;;;;;6.50;99.90;;;;;;5125213;27;19920;-81
2022/05/09 03:13:15;;;;;;;;;;;6.50;99.90;;;;;;5092459;28;20337;-84
2022/05/09 03:15:42;;;;;;;;;;;6.50;99.90;;;;;;5109002;28;19920;-81
2022/05/09 03:18:08;;;;;;;;;;;6.40;99.90;;;;;;5126835;27;19920;-81
2022/05/09 03:20:34;;;;;;;;;;;6.30;99.90;;;;;;5091988;28;19993;-82
2022/05/09 03:22:59;;;;;;;;;;;6.40;99.90;;;;;;5108397;28;19967;-82
2022/05/09 03:25:26;;;;;;;;;;;6.30;99.90;;;;;;5091273;28;19925;-83
2022/05/09 03:27:52;;;;;;;;;;;6.30;99.90;;;;;;5092686;28;20352;-82
2022/05/09 03:30:18;;;;;;;;;;;6.30;99.90;;;;;;5074921;28;19963;-83
2022/05/09 03:32:44;;;;;;;;;;;6.30;99.90;;;;;;5055160;28;19927;-81
2022/05/09 03:35:10;;;;;;;;;;;6.30;99.90;;;;;;5072090;28;20304;-82
2022/05/09 03:37:36;;;;;;;;;;;6.30;99.90;;;;;;5056817;28;20003;-82
2022/05/09 03:40:02;;;;;;;;;;;6.20;99.90;;;;;;5125818;27;20019;-83
2022/05/09 03:42:28;;;;;;;;;;;6.20;99.90;;;;;;5058015;28;20353;-82
2022/05/09 03:44:53;;;;;;;;;;;6.20;99.90;;;;;;5091033;28;19927;-82
2022/05/09 03:47:19;;;;;;;;;;;6.10;99.90;;;;;;5091886;28;20329;-84
2022/05/09 03:49:44;;;;;;;;;;;6.10;99.90;;;;;;5092218;28;19970;-82
2022/05/09 03:52:10;;;;;;;;;;;6.20;99.90;;;;;;5071622;28;19926;-82
2022/05/09 03:54:36;;;;;;;;;;;6.00;99.90;;;;;;5071427;28;20262;-84
2022/05/09 03:57:02;;;;;;;;;;;6.20;99.90;;;;;;5105422;28;20022;-82
2022/05/09 03:59:28;;;;;;;;;;;6.00;99.90;;;;;;5071039;28;19978;-82
2022/05/09 04:01:53;;;;;;;;;;;6.50;99.90;;;;;;5071819;28;19924;-82
2022/05/09 04:04:19;;;;;;;;;;;6.00;99.90;;;;;;5105107;28;20376;-84
2022/05/09 04:06:45;;;;;;;;;;;6.00;99.90;;;;;;5074552;28;20445;-82
2022/05/09 04:09:10;;;;;;;;;;;6.00;99.90;;;;;;5105079;28;19928;-82
2022/05/09 04:11:36;;;;;;;;;;;5.90;99.90;;;;;;5104207;28;19924;-82
2022/05/09 04:14:02;;;;;;;;;;;5.90;99.90;;;;;;5108323;28;19924;-83
2022/05/09 04:19:12;;;;;;;;;;;5.90;99.90;;;;;;5105031;28;20014;-81
2022/05/09 04:21:37;;;;;;;;;;;6.00;99.90;;;;;;5069911;28;20417;-81
2022/05/09 04:24:03;;;;;;;;;;;6.00;99.90;;;;;;5070565;28;19920;-81
2022/05/09 04:26:31;;;;;;;;;;;6.00;99.90;;;;;;5069418;28;19973;-81
2022/05/09 04:28:57;;;;;;;;;;;6.00;99.90;;;;;;5070004;28;20568;-81
2022/05/09 04:31:23;;;;;;;;;;;6.00;99.90;;;;;;5086212;28;19947;-81
2022/05/09 04:33:48;;;;;;;;;;;6.20;99.90;;;;;;5070265;28;19925;-81
2022/05/09 04:36:14;;;;;;;;;;;5.90;99.90;;;;;;5086921;28;19924;-82
2022/05/09 04:38:42;;;;;;;;;;;6.00;99.90;;;;;;5069800;28;19927;-81
2022/05/09 04:41:10;;;;;;;;;;;6.10;99.90;;;;;;5068994;28;19931;-82
2022/05/09 04:43:36;;;;;;;;;;;5.90;99.90;;;;;;5080826;28;19969;-82
2022/05/09 04:46:04;;;;;;;;;;;6.10;99.90;;;;;;5090216;28;20014;-81
2022/05/09 04:48:30;;;;;;;;;;;6.10;99.90;;;;;;5089923;28;19924;-83
2022/05/09 04:50:56;;;;;;;;;;;6.10;99.90;;;;;;5124403;27;19961;-81
2022/05/09 04:53:21;;;;;;;;;;;6.20;99.90;;;;;;5072808;28;20414;-82
2022/05/09 04:55:47;;;;;;;;;;;6.50;99.90;;;;;;5072511;28;19924;-81
2022/05/09 04:58:14;;;;;;;;;;;6.40;99.90;;;;;;5124346;27;20018;-81
2022/05/09 05:00:39;;;;;;;;;;;6.70;99.90;;;;;;5121911;27;19946;-81
2022/05/09 05:03:05;;;;;;;;;;;6.60;99.90;;;;;;5090051;28;19924;-81
2022/05/09 05:05:30;;;;;;;;;;;6.70;99.90;;;;;;5123353;27;20407;-81
2022/05/09 05:07:56;;;;;;;;;;;7.10;99.90;;;;;;5123494;27;20289;-81
2022/05/09 05:10:22;;;;;;;;;;;6.80;99.90;;;;;;5089187;28;19930;-81
2022/05/09 05:12:48;;;;;;;;;;;6.90;99.90;;;;;;5106576;28;20431;-81
2022/05/09 05:15:13;;;;;;;;;;;7.20;99.90;;;;;;5089090;28;20379;-81
2022/05/09 05:17:39;;;;;;;;;;;7.20;99.90;;;;;;5089541;28;19927;-81
2022/05/09 05:20:09;;;;;;;;;;;7.30;99.90;;;;;;5089884;28;19978;-82
2022/05/09 05:22:39;;;;;;;;;;;7.50;99.90;;;;;;5077208;28;20390;-81
2022/05/09 05:25:04;;;;;;;;;;;7.60;99.90;;;;;;5089276;28;19931;-83
2022/05/09 05:27:30;;;;;;;;;;;7.70;99.90;;;;;;5088289;28;19949;-81
2022/05/09 05:29:57;;;;;;;;;;;7.80;99.90;;;;;;5089469;28;19932;-80
2022/05/09 05:32:24;;;;;;;;;;;7.90;99.90;;;;;;5072148;28;19924;-80
2022/05/09 05:34:50;;;;;;;;;;;8.00;99.90;;;;;;5092618;28;19920;-80
2022/05/09 05:37:16;;;;;;;;;;;8.10;99.90;;;;;;5092761;28;19972;-84
2022/05/09 05:39:43;;;;;;;;;;;8.20;99.90;;;;;;5092319;28;19927;-80
2022/05/09 05:42:09;;;;;;;;;;;8.20;99.90;;;;;;5089936;28;20416;-79
2022/05/09 05:44:37;;;;;;;;;;;8.30;99.90;;;;;;5090072;28;19927;-79
2022/05/09 05:47:09;;;;;;;;;;;8.50;99.90;;;;;;5092042;28;20002;-79
2022/05/09 05:49:36;;;;;;;;;;;8.50;99.90;;;;;;5123639;27;19931;-79
2022/05/09 05:52:05;;;;;;;;;;;8.90;99.90;;;;;;5092744;28;19920;-79
2022/05/09 05:54:32;;;;;;;;;;;8.60;99.90;;;;;;5092799;28;19920;-79
2022/05/09 05:56:57;;;;;;;;;;;8.70;99.90;;;;;;5092974;28;19927;-79
2022/05/09 05:59:25;;;;;;;;;;;8.80;99.90;;;;;;5093174;28;20069;-80
2022/05/09 06:01:51;;;;;;;;;;;8.90;99.90;;;;;;5092075;28;19920;-79
2022/05/09 06:04:17;;;;;;;;;;;8.90;99.90;;;;;;5093639;28;19930;-79
2022/05/09 06:06:43;;;;;;;;;;;9.00;99.90;;;;;;5092237;28;19919;-79
2022/05/09 06:09:09;;;;;;;;;;;9.10;99.90;;;;;;5093356;28;19934;-79
2022/05/09 06:11:35;;;;;;;;;;;9.10;99.90;;;;;;5091981;28;20022;-79
2022/05/09 06:14:04;;;;;;;;;;;9.20;99.90;;;;;;5092804;28;20011;-79
2022/05/09 06:16:30;;;;;;;;;;;9.20;99.90;;;;;;5092867;28;20007;-79
2022/05/09 06:18:55;;;;;;;;;;;9.30;99.90;;;;;;5093237;28;20018;-79
2022/05/09 06:21:22;;;;;;;;;;;9.40;99.90;;;;;;5109494;28;19920;-79
2022/05/09 06:23:49;;;;;;;;;;;9.40;99.90;;;;;;5092108;28;19989;-79
2022/05/09 06:26:14;;;;;;;;;;;9.40;99.90;;;;;;5092404;28;19963;-79
2022/05/09 06:28:40;;;;;;;;;;;9.50;99.90;;;;;;5091770;28;20001;-79
2022/05/09 06:31:06;;;;;;;;;;;9.50;99.90;;;;;;5092225;28;20010;-80
2022/05/09 06:33:32;;;;;;;;;;;9.60;99.90;;;;;;5092039;28;20030;-79
2022/05/09 06:35:58;;;;;;;;;;;9.60;99.90;;;;;;5109881;27;20327;-79
2022/05/09 06:38:27;;;;;;;;;;;9.70;99.90;;;;;;5074989;28;19920;-78
2022/05/09 06:40:53;;;;;;;;;;;9.70;99.90;;;;;;5091292;28;19920;-78
2022/05/09 06:43:19;;;;;;;;;;;9.80;99.90;;;;;;5092188;28;19946;-79
2022/05/09 06:45:45;;;;;;;;;;;9.90;99.90;;;;;;5090350;28;19924;-79
2022/05/09 06:48:10;;;;;;;;;;;9.90;99.90;;;;;;5083684;28;19920;-78
2022/05/09 06:50:37;;;;;;;;;;;10.00;99.90;;;;;;5090802;28;19928;-78
2022/05/09 06:53:03;;;;;;;;;;;10.10;99.90;;;;;;5125407;27;20002;-78
2022/05/09 06:55:29;;;;;;;;;;;10.10;99.90;;;;;;5090024;28;20717;-78
2022/05/09 06:57:55;;;;;;;;;;;10.20;99.90;;;;;;5073929;28;19970;-78
2022/05/09 07:00:22;;;;;;;;;;;10.30;99.90;;;;;;5126111;27;19963;-78
2022/05/09 07:02:48;;;;;;;;;;;10.30;99.90;;;;;;5124915;27;19924;-78
2022/05/09 07:05:15;;;;;;;;;;;10.40;99.90;;;;;;5073669;28;20346;-78
2022/05/09 07:07:41;;;;;;;;;;;10.50;99.90;;;;;;5110169;27;19946;-78
2022/05/09 07:10:07;;;;;;;;;;;10.60;99.90;;;;;;5088407;28;19924;-78
2022/05/09 07:12:40;;;;;;;;;;;10.60;99.90;;;;;;5091747;28;19920;-78
2022/05/09 07:15:06;;;;;;;;;;;10.70;99.90;;;;;;5091236;28;19920;-80
2022/05/09 07:17:32;;;;;;;;;;;10.80;99.90;;;;;;5075154;28;19919;-81
2022/05/09 07:19:57;;;;;;;;;;;10.90;99.90;;;;;;5091608;28;19920;-81
2022/05/09 07:22:23;;;;;;;;;;;11.00;99.90;;;;;;5087502;28;19920;-81
2022/05/09 07:24:49;;;;;;;;;;;11.00;99.90;;;;;;5074526;28;19920;-79
2022/05/09 07:27:14;;;;;;;;;;;11.10;99.90;;;;;;5057519;28;19920;-75
2022/05/09 07:29:41;;;;;;;;;;;11.20;99.90;;;;;;5124616;27;19974;-77
2022/05/09 07:32:07;;;;;;;;;;;11.30;99.90;;;;;;5091746;28;19927;-78
2022/05/09 07:34:33;;;;;;;;;;;11.30;99.90;;;;;;5091125;28;19920;-78
2022/05/09 07:36:58;;;;;;;;;;;11.40;99.90;;;;;;5124567;27;19965;-79
2022/05/09 07:39:24;;;;;;;;;;;11.50;99.90;;;;;;5091629;28;20341;-77
2022/05/09 07:41:49;;;;;;;;;;;11.60;99.90;;;;;;5090051;28;19920;-78
2022/05/09 07:44:15;;;;;;;;;;;11.60;99.90;;;;;;5089257;28;19924;-78
2022/05/09 07:46:41;;;;;;;;;;;11.70;99.90;;;;;;5124985;27;19924;-78
2022/05/09 07:49:06;;;;;;;;;;;11.90;99.90;;;;;;5074517;28;19932;-80
2022/05/09 07:51:36;;;;;;;;;;;12.00;99.90;;;;;;5090436;28;19945;-79
2022/05/09 07:54:03;;;;;;;;;;;12.10;99.90;;;;;;5090842;28;19975;-79
2022/05/09 07:56:28;;;;;;;;;;;12.10;99.90;;;;;;5090159;28;19942;-79
2022/05/09 07:58:54;;;;;;;;;;;12.20;99.90;;;;;;5124735;27;20007;-79
2022/05/09 08:01:19;;;;;;;;;;;12.30;99.90;;;;;;5090538;28;19931;-80
2022/05/09 08:03:45;;;;;;;;;;;12.30;99.90;;;;;;5107157;28;20027;-79
2022/05/09 08:06:10;;;;;;;;;;;12.40;99.90;;;;;;5090026;28;19920;-79
2022/05/09 08:08:37;;;;;;;;;;;12.50;99.90;;;;;;5090051;28;19924;-80
2022/05/09 08:11:03;;;;;;;;;;;12.60;99.90;;;;;;5089834;28;19920;-81
2022/05/09 08:13:30;;;;;;;;;;;12.70;99.90;;;;;;5090554;28;19927;-81
2022/05/09 08:15:56;;;;;;;;;;;12.80;99.90;;;;;;5090116;28;19931;-80
2022/05/09 08:18:24;;;;;;;;;;;12.90;99.90;;;;;;5091093;28;19924;-82
2022/05/09 08:20:50;;;;;;;;;;;13.00;99.90;;;;;;5089789;28;19920;-80
2022/05/09 08:23:18;;;;;;;;;;;13.00;99.90;;;;;;5073422;28;19930;-81
2022/05/09 08:25:45;;;;;;;;;;;13.00;99.90;;;;;;5089482;28;19974;-81
2022/05/09 08:28:11;;;;;;;;;;;13.00;99.90;;;;;;5090261;28;19923;-81
2022/05/09 08:30:38;;;;;;;;;;;13.00;99.90;;;;;;5086170;28;19943;-81
2022/05/09 08:33:14;;;;;;;;;;;13.10;99.90;;;;;;5068497;28;19924;-80
2022/05/09 08:35:43;;;;;;;;;;;13.20;99.90;;;;;;5124088;27;19959;-81
2022/05/09 08:38:08;;;;;;;;;;;13.30;99.90;;;;;;5089571;28;20335;-80
2022/05/09 08:40:53;;;;;;;;;;;13.40;99.90;;;;;;5106453;28;19950;-84
2022/05/09 08:43:24;;;;;;;;;;;13.40;99.90;;;;;;5091038;28;19924;-81
2022/05/09 08:45:59;;;;;;;;;;;13.50;99.90;;;;;;5089921;28;19920;-83
2022/05/09 08:52:10;;;;;;;;;;;13.50;99.90;;;;;;5089628;28;19966;-80
2022/05/09 08:54:36;;;;;;;;;;;13.70;99.90;;;;;;5067520;28;20022;-80
2022/05/09 08:57:31;;;;;;;;;;;13.70;99.90;;;;;;5072217;28;20354;-82
2022/05/09 09:00:13;;;;;;;;;;;13.90;99.90;;;;;;5088246;28;20006;-82
2022/05/09 09:02:56;;;;;;;;;;;14.00;99.90;;;;;;5086318;28;20023;-83
2022/05/09 09:05:41;;;;;;;;;;;14.10;99.90;;;;;;5069791;28;19970;-82
2022/05/09 09:08:25;;;;;;;;;;;14.20;99.90;;;;;;5082688;28;19920;-82
2022/05/09 09:11:00;;;;;;;;;;;14.30;99.90;;;;;;5083776;28;19920;-81
2022/05/09 09:13:52;;;;;;;;;;;14.40;99.90;;;;;;5092152;28;20327;-79
2022/05/09 09:16:27;;;;;;;;;;;14.60;99.90;;;;;;5072730;28;20404;-79
2022/05/09 09:18:56;;;;;;;;;;;14.70;98.90;;;;;;5089771;28;19924;-78
2022/05/09 09:21:30;;;;;;;;;;;14.80;97.40;;;;;;5089510;28;20505;-79
2022/05/09 09:23:56;;;;;;;;;;;14.90;98.60;;;;;;5089503;28;19923;-79
2022/05/09 09:26:28;;;;;;;;;;;15.00;97.70;;;;;;5089300;28;20256;-78
2022/05/09 09:28:58;;;;;;;;;;;15.10;97.40;;;;;;5072707;28;20267;-78
2022/05/09 09:31:27;;;;;;;;;;;15.20;99.40;;;;;;5089385;28;19969;-78
2022/05/09 09:34:02;;;;;;;;;;;15.40;97.60;;;;;;5089137;28;19920;-78
2022/05/09 09:36:37;;;;;;;;;;;15.60;98.60;;;;;;5089189;28;20015;-78
2022/05/09 09:39:13;;;;;;;;;;;15.80;96.10;;;;;;5088773;28;20003;-78
2022/05/09 09:41:39;;;;;;;;;;;16.00;96.90;;;;;;5123184;28;20292;-78
2022/05/09 09:44:08;;;;;;;;;;;16.10;93.90;;;;;;5106062;28;19923;-78
2022/05/09 09:46:34;;;;;;;;;;;16.20;92.60;;;;;;5123963;28;19971;-78
2022/05/09 09:49:02;;;;;;;;;;;16.30;92.90;;;;;;5089447;28;19924;-78
2022/05/09 09:51:28;;;;;;;;;;;16.30;93.90;;;;;;5123320;28;19972;-78
2022/05/09 09:53:55;;;;;;;;;;;16.40;92.50;;;;;;5089099;28;19920;-79
2022/05/09 09:56:20;;;;;;;;;;;16.60;93.20;;;;;;5089018;28;19931;-79
2022/05/09 09:58:47;;;;;;;;;;;16.80;92.60;;;;;;5120092;28;19928;-79
2022/05/09 10:01:14;;;;;;;;;;;16.90;93.40;;;;;;5088564;28;19939;-79
2022/05/09 10:03:42;;;;;;;;;;;17.00;91.70;;;;;;5089125;28;19920;-79
2022/05/09 10:06:14;;;;;;;;;;;17.00;91.10;;;;;;5087750;28;20073;-82
2022/05/09 10:08:40;;;;;;;;;;;17.00;92.30;;;;;;5089223;28;19972;-79
2022/05/09 10:11:09;;;;;;;;;;;17.20;91.30;;;;;;5067893;28;19926;-79
2022/05/09 10:13:36;;;;;;;;;;;17.30;90.10;;;;;;5086082;28;19924;-79
2022/05/09 10:16:08;;;;;;;;;;;17.40;90.00;;;;;;5068571;28;19920;-79
2022/05/09 10:18:34;;;;;;;;;;;17.40;88.80;;;;;;5110802;28;19927;-79
2022/05/09 10:21:01;;;;;;;;;;;17.40;84.40;;;;;;5088423;28;20034;-79
2022/05/09 10:26:15;;;;;;;;;;;17.40;86.00;;;;;;5123651;27;20002;-75
2022/05/09 10:28:45;;;;;;;;;;;17.40;83.70;;;;;;5089114;28;19919;-79
2022/05/09 10:33:25;;;;;;;4.25;1.48;;;17.50;85.30;;;;;;5129333;27;20165;-77
2022/05/09 10:35:54;;;;;;;2.70;1.25;;;17.70;87.30;;;;;;5152343;27;20047;-77
2022/05/09 10:38:37;;;;;;;3.63;1.40;;;17.80;88.40;;;;;;5124331;28;20610;-77
2022/05/09 10:41:43;;;;;;;8.38;1.60;;;18.00;82.90;;;;;;5123474;28;20601;-77
2022/05/09 10:44:34;;;;;;;5.15;1.90;;;18.10;81.00;;;;;;5114737;27;20132;-79
2022/05/09 10:47:13;;;;;;;7.68;1.75;;;18.20;83.50;;;;;;5127238;27;20454;-79
2022/05/09 10:49:44;;;;;;;4.80;1.90;;;18.30;82.70;;;;;;5145165;27;20089;-80
2022/05/09 10:52:50;;;;;;;8.10;1.65;;;18.40;83.30;;;;;;5125509;28;20049;-79
2022/05/09 10:55:19;;;;;;;4.15;1.95;;;18.50;83.80;;;;;;5125341;28;20464;-79
2022/05/09 10:57:46;;;;;;;7.28;1.40;;;18.60;76.60;;;;;;5127687;28;20044;-79
2022/05/09 11:00:18;;;;;;;3.40;1.40;;;18.70;75.50;;;;;;5126263;27;20047;-79
2022/05/09 11:02:56;;;;;;;5.65;1.50;;;18.70;75.40;;;;;;5145432;27;20040;-80
2022/05/09 11:05:24;;;;;;;5.13;1.63;;;18.70;74.80;;;;;;5124021;28;20464;-79
2022/05/09 11:08:06;;;;;;;8.60;1.90;;;18.80;75.20;;;;;;5127967;27;20050;-80
2022/05/09 11:10:40;;;;;;;4.50;1.58;;;18.90;75.40;;;;;;5127227;27;20518;-79
2022/05/09 11:13:34;;;;;;;7.40;2.13;;;19.10;76.10;;;;;;5129164;27;20061;-79
2022/05/09 11:16:06;;;;;;;4.95;1.83;;;19.30;76.50;;;;;;5154912;27;20058;-81
2022/05/09 11:19:09;;;;;;;5.78;1.70;;;19.50;75.20;;;;;;5111080;27;20119;-79
2022/05/09 11:21:49;;;;;;;4.10;1.80;;;19.60;71.20;;;;;;5116033;27;20051;-79
2022/05/09 11:24:46;;;;;;;6.85;1.83;;;19.60;70.90;;;;;;5134886;27;20308;-79
2022/05/09 11:27:30;;;;;;;6.93;1.80;;;19.70;71.40;;;;;;5108667;28;20173;-79
2022/05/09 11:30:21;;;;;;;3.35;1.67;;;19.80;71.60;;;;;;5109204;28;20097;-81
2022/05/09 11:33:13;;;;;;;12.00;2.40;;;20.00;70.20;;;;;;5109349;28;20051;-78
2022/05/09 11:35:40;;;;;;;9.07;2.13;;;20.10;70.20;;;;;;5126426;28;20134;-79
2022/05/09 11:38:42;;;;;;;5.82;1.90;;;20.20;70.80;;;;;;5125391;27;20055;-79
2022/05/09 11:41:35;;;;;;;4.68;1.60;;;20.40;71.20;;;;;;5126845;27;20085;-79
2022/05/09 11:44:12;;;;;;;4.95;1.73;;;20.70;68.40;;;;;;5122010;27;20040;-79
2022/05/09 11:46:47;;;;;;;4.18;1.83;;;20.70;65.90;;;;;;5125763;27;20050;-79
2022/05/09 11:49:57;;;;;;;3.22;1.58;;;20.80;66.80;;;;;;5121502;27;20146;-79
2022/05/09 11:52:41;;;;;;;6.00;1.40;;;21.00;68.60;;;;;;5153932;27;20051;-79
2022/05/09 11:55:11;;;;;;;3.90;1.52;;;21.30;67.50;;;;;;5132970;27;20094;-81
2022/05/09 11:57:40;;;;;;;3.70;1.50;;;21.60;67.00;;;;;;5112595;28;20043;-80
2022/05/09 12:00:32;;;;;;;6.97;1.90;;;21.80;65.00;;;;;;5090588;28;20154;-82
2022/05/09 12:03:01;;;;;;;5.45;1.75;;;22.00;65.00;;;;;;5102435;27;20531;-79
2022/05/09 12:05:28;;;;;;;3.60;1.60;;;22.20;62.80;;;;;;5099186;27;20054;-79
2022/05/09 12:08:04;;;;;;;5.70;1.90;;;22.20;61.00;;;;;;5132522;27;20039;-78
2022/05/09 12:10:35;;;;;;;3.92;1.45;;;22.30;60.90;;;;;;5131783;27;20104;-78
2022/05/09 12:13:04;;;;;;;4.18;1.45;;;22.40;62.10;;;;;;5132165;27;20484;-80
2022/05/09 12:15:33;;;;;;;5.95;1.75;;;22.70;62.90;;;;;;5132239;27;20055;-79
2022/05/09 12:17:58;;;;;;;6.78;1.75;;;22.90;61.70;;;;;;5132494;27;20051;-79
2022/05/09 12:20:27;;;;;;;6.20;1.60;;;23.20;61.60;;;;;;5132115;27;20046;-80
2022/05/09 12:23:02;;;;;;;4.55;1.50;;;23.40;62.00;;;;;;5114896;27;20044;-80
2022/05/09 12:25:34;;;;;;;4.72;1.88;;;23.60;60.40;;;;;;5133524;27;20062;-78
2022/05/09 12:28:48;;;;;;;5.88;1.77;;;23.80;59.00;;;;;;5111564;28;20054;-79
2022/05/09 12:31:38;;;;;;;3.75;1.50;;;23.90;59.40;;;;;;5118738;27;20122;-79
2022/05/09 12:34:04;;;;;;;4.95;1.80;;;24.20;57.60;;;;;;5166423;27;20054;-80
2022/05/09 12:36:34;;;;;;;3.47;1.42;;;24.40;59.80;;;;;;5114906;27;20051;-79
2022/05/09 12:39:06;;;;;;;4.05;1.55;;;24.80;61.70;;;;;;5115415;27;20124;-78
2022/05/09 12:41:42;;;;;;;6.65;1.50;;;25.20;61.00;;;;;;5131642;27;20053;-79
2022/05/09 12:44:12;;;;;;;3.63;1.35;;;25.40;54.80;;;;;;5131494;27;20135;-79
2022/05/09 12:47:02;;;;;;;4.85;1.80;;;25.40;55.40;;;;;;5132257;27;20062;-79
2022/05/09 12:49:36;;;;;;;7.78;1.50;;;25.50;55.50;;;;;;5117552;27;20074;-79
2022/05/09 12:52:04;;;;;;;3.55;1.20;;;25.60;55.60;;;;;;5096895;28;20040;-78
2022/05/09 12:54:30;;;;;;;5.00;1.95;;;25.80;54.60;;;;;;5138910;27;20528;-79
2022/05/09 12:57:01;;;;;;;3.97;1.65;;;26.00;54.00;;;;;;5093716;28;20191;-79
2022/05/09 12:59:28;;;;;;;4.15;1.50;;;26.20;55.00;;;;;;5110469;28;20540;-79
2022/05/09 13:01:58;;;;;;;3.03;1.20;;;26.50;56.30;;;;;;5111276;28;20058;-79
2022/05/09 13:04:35;;;;;;;3.10;1.33;;;26.80;55.40;;;;;;5111014;28;20052;-79
2022/05/09 13:07:04;;;;;;;5.35;1.60;;;27.00;54.80;;;;;;5110520;28;20140;-80
2022/05/09 13:09:35;;;;;;;2.25;1.30;;;27.40;56.80;;;;;;5099981;28;20075;-79
2022/05/09 13:12:13;;;;;;;3.63;1.25;;;27.70;55.50;;;;;;5093277;28;20052;-79
2022/05/09 13:14:46;;;;;;;3.42;1.55;;;27.80;51.80;;;;;;5127617;27;20116;-79
2022/05/09 13:17:19;;;;;;;1.73;1.17;;;27.70;50.20;;;;;;5110477;28;20051;-79
2022/05/09 13:19:50;;;;;;;3.88;1.30;;;27.70;47.50;;;;;;5145413;27;20059;-79
2022/05/09 13:22:31;;;;;;;3.90;1.45;;;27.70;46.80;;;;;;5109637;28;20053;-78
2022/05/09 13:25:05;;;;;;;6.55;1.42;;;27.70;45.40;;;;;;5100278;28;20076;-79
2022/05/09 13:27:31;;;;;;;4.28;1.52;;;27.70;45.70;;;;;;5090694;28;20535;-78
2022/05/09 13:29:56;;;;;;;5.03;1.50;;;27.70;44.60;;;;;;5090596;27;20500;-80
2022/05/09 13:32:29;;;;;;;2.45;1.40;;;27.70;45.00;;;;;;5111092;27;20056;-78
2022/05/09 13:34:56;;;;;;;5.93;1.50;;;28.00;46.50;;;;;;5102442;28;20055;-80
2022/05/09 13:37:31;;;;;;;3.13;1.50;;;28.30;46.40;;;;;;5119888;27;20062;-77
2022/05/09 13:39:57;;;;;;;4.07;1.40;;;28.60;44.60;;;;;;5106334;27;20051;-77
2022/05/09 13:42:25;;;;;;;4.55;1.40;;;28.60;44.00;;;;;;5108224;27;20281;-81
2022/05/09 13:44:53;;;;;;;4.38;1.50;;;28.70;43.90;;;;;;5110107;28;20170;-78
2022/05/09 13:47:21;;;;;;;5.22;1.65;;;28.80;44.00;;;;;;5109652;27;20100;-79
2022/05/09 13:49:49;;;;;;;3.22;1.38;;;28.80;42.80;;;;;;5090944;28;20047;-79
2022/05/09 13:52:26;;;;;;;3.95;1.60;;;28.70;43.00;;;;;;5107741;28;20048;-78
2022/05/09 13:54:55;;;;;;;6.63;1.58;;;28.80;42.70;;;;;;5080047;28;20163;-78
2022/05/09 13:57:31;;;;;;;4.32;1.60;;;29.10;43.10;;;;;;5107916;28;20039;-79
2022/05/09 14:00:09;;;;;;;4.32;1.58;;;29.60;43.80;;;;;;5106362;28;20059;-79
2022/05/09 14:02:36;;;;;;;3.60;1.50;;;30.20;45.10;;;;;;5092937;28;20606;-80
2022/05/09 14:05:18;;;;;;;3.22;1.60;;;30.70;44.30;;;;;;5131613;27;20107;-80
2022/05/09 14:07:46;;;;;;;3.78;1.33;;;31.00;42.90;;;;;;5112487;27;20073;-79
2022/05/09 14:10:42;;;;;;;3.22;1.38;;;31.20;42.40;;;;;;5094473;28;20052;-81
2022/05/09 14:13:39;;;;;;;2.67;1.50;;;31.10;40.20;;;;;;5089836;28;20044;-79
2022/05/09 14:16:35;;;;;;;3.42;1.60;;;30.90;38.80;;;;;;5088861;28;20478;-79
2022/05/09 14:19:04;;;;;;;4.30;1.50;;;30.60;39.20;;;;;;5133121;27;20077;-79
2022/05/09 14:21:41;;;;;;;5.50;1.90;;;30.60;38.90;;;;;;5111080;27;20047;-78
2022/05/09 14:24:09;;;;;;;6.53;1.58;;;30.80;39.30;;;;;;5109670;28;20078;-79
2022/05/09 14:29:46;;;;;;;3.40;1.50;;;31.40;39.40;;;;;;5108310;28;20043;-79
2022/05/09 14:32:13;;;;;;;3.90;1.30;;;31.70;39.20;;;;;;5128470;28;20143;-81